Batavia, NY (14020)

12:39 AM EDT on July 31, 2016 (GMT -0400)
Park Rd | | Change Station

Elev 932 ft 43.01 °N, 78.20 °W | Updated 3 seconds ago

Partly Cloudy
Partly Cloudy
69.5 °F
Feels Like 69.5 °F
N
4.7
Wind Variable Wind from ENE
Gusts 6.0 mph

Today
High -- | Low -- °F
--% Chance of Precip.
Yesterday
High -- | Low -- °F
Precip. -- in
Pressure 30.01 in
Visibility 10.0 miles
Clouds Few 8000 ft
Few 11000 ft
Dew Point 57 °F
Humidity 64%
Rainfall 0.00 in
Snow Depth Not available.
6:03 AM 8:34 PM
Waning Crescent, 9% visible
METAR KBUF 310354Z 06007KT 10SM FEW080 FEW110 22/13 A3001 RMK AO2 SLP160 T02170133 $
Pressure 30.01 in
Visibility 10.0 miles
Clouds Few 8000 ft
Few 11000 ft
Dew Point 57 °F
Humidity 64%
Rainfall 0.00 in
Snow Depth Not available.
6:03 AM 8:34 PM
Waning Crescent, 9% visible
METAR KBUF 310354Z 06007KT 10SM FEW080 FEW110 22/13 A3001 RMK AO2 SLP160 T02170133 $

10-Day Weather Forecast

Almanac

Astronomy

Jul. 31, 2016 Rise Set
Actual Time
Civil Twilight
Nautical Twilight
Astronomical Twilight
Moon
Length of Visible Light
Length of Day
Tomorrow will be .
, % of the Moon is Illuminated

Today's Extremes

State Highs State Lows

Community

WunderPhotos

Upload Photos

1,928,759 photos uploaded!

WunderBlog® & News

Nearby

Air Quality

  Air Quality AQ Index Pollutant
Not available.

Snow Depth

Station Depth Elevation

Earthquake Activity

City Distance Mag. Time & Date
Minimum magnitude displayed is 2.5.

Coastal Water Temperatures

Place Temperature

Stations

Nearby Weather Stations

Station Location Temp. Windchill Dew Point Humidity Wind Precip. Elev Updated Type
                   

Watches & Warnings

There are currently no watches in effect.